createdAt,value
2023-03-30T00:01:40.053Z,11.57
2023-03-30T00:04:11.593Z,11.77
2023-03-30T00:06:42.515Z,11.77
2023-03-30T00:09:10.053Z,10.60
2023-03-30T00:11:37.840Z,11.20
2023-03-30T00:14:05.379Z,12.23
2023-03-30T00:16:33.069Z,10.10
2023-03-30T00:19:00.680Z,11.50
2023-03-30T00:21:29.937Z,11.33
2023-03-30T00:23:57.470Z,12.07
2023-03-30T00:26:25.141Z,11.20
2023-03-30T00:28:52.703Z,11.73
2023-03-30T00:31:20.495Z,11.57
2023-03-30T00:33:48.189Z,11.83
2023-03-30T00:36:16.206Z,11.53
2023-03-30T00:38:48.378Z,11.73
2023-03-30T00:41:16.582Z,12.37
2023-03-30T00:43:57.986Z,11.57
2023-03-30T00:46:25.742Z,12.57
2023-03-30T00:48:57.603Z,12.50
2023-03-30T00:51:26.411Z,11.23
2023-03-30T00:53:57.637Z,12.80
2023-03-30T00:56:28.336Z,12.80
2023-03-30T00:58:56.119Z,14.53
2023-03-30T01:01:29.110Z,13.10
2023-03-30T01:03:59.355Z,13.27
2023-03-30T01:06:30.034Z,13.53
2023-03-30T01:08:59.304Z,13.17
2023-03-30T01:11:27.956Z,12.40
2023-03-30T01:13:59.252Z,15.17
2023-03-30T01:16:31.278Z,12.20
2023-03-30T01:19:06.130Z,13.13
2023-03-30T01:21:55.629Z,13.03
2023-03-30T01:24:53.319Z,12.00
2023-03-30T01:27:39.261Z,11.93
2023-03-30T01:30:22.828Z,12.07
2023-03-30T01:33:13.038Z,11.93
2023-03-30T01:36:13.741Z,11.37
2023-03-30T01:39:02.763Z,11.83
2023-03-30T01:41:35.695Z,12.53
2023-03-30T01:44:07.574Z,11.93
2023-03-30T01:46:37.844Z,11.73
2023-03-30T01:49:11.782Z,11.70
2023-03-30T01:51:43.650Z,11.70
2023-03-30T01:54:15.455Z,12.27
2023-03-30T01:56:45.609Z,11.87
2023-03-30T01:59:17.534Z,11.10
2023-03-30T02:01:50.193Z,12.97
2023-03-30T02:04:20.126Z,11.40
2023-03-30T02:06:49.791Z,13.50
2023-03-30T02:09:20.734Z,11.57
2023-03-30T02:11:50.446Z,11.27
2023-03-30T02:14:19.307Z,11.17
2023-03-30T02:16:48.378Z,11.87
2023-03-30T02:19:17.021Z,11.57
2023-03-30T02:21:44.813Z,10.87
2023-03-30T02:24:17.880Z,11.40
2023-03-30T02:26:49.075Z,11.27
2023-03-30T02:29:17.473Z,13.27
2023-03-30T02:31:47.092Z,11.43
2023-03-30T02:34:22.081Z,11.57
2023-03-30T02:37:06.091Z,13.57
2023-03-30T02:39:42.623Z,10.57
2023-03-30T02:42:27.728Z,14.93
2023-03-30T02:45:04.654Z,11.53
2023-03-30T02:47:36.484Z,11.77
2023-03-30T02:50:07.043Z,12.37
2023-03-30T02:52:42.979Z,11.83
2023-03-30T02:55:15.002Z,12.33
2023-03-30T02:57:51.089Z,11.83
2023-03-30T03:00:20.233Z,11.03
2023-03-30T03:02:52.460Z,11.60
2023-03-30T03:05:20.779Z,15.90
2023-03-30T03:07:49.191Z,11.63
2023-03-30T03:10:16.771Z,11.47
2023-03-30T03:12:46.922Z,12.27
2023-03-30T03:15:14.730Z,12.30
2023-03-30T03:17:45.253Z,10.73
2023-03-30T03:20:13.023Z,12.10
2023-03-30T03:22:40.631Z,11.10
2023-03-30T03:25:08.774Z,12.00
2023-03-30T03:27:36.460Z,14.43
2023-03-30T03:30:05.846Z,9.80
2023-03-30T03:32:33.403Z,10.53
2023-03-30T03:35:01.331Z,10.40
2023-03-30T03:37:28.881Z,11.90
2023-03-30T03:39:56.529Z,10.70
2023-03-30T03:42:24.047Z,11.90
2023-03-30T03:44:51.572Z,12.00
2023-03-30T03:47:20.805Z,10.43
2023-03-30T03:49:48.368Z,12.30
2023-03-30T03:52:15.897Z,14.13
2023-03-30T03:54:43.482Z,10.57
2023-03-30T03:57:11.053Z,12.03
2023-03-30T03:59:38.659Z,12.53
2023-03-30T04:02:06.669Z,12.33
2023-03-30T04:04:35.939Z,10.60
2023-03-30T04:07:03.534Z,11.07
2023-03-30T04:09:31.066Z,11.53
2023-03-30T04:11:58.592Z,11.43
2023-03-30T04:14:26.373Z,10.47
2023-03-30T04:16:58.071Z,9.77
2023-03-30T04:19:27.746Z,11.33
2023-03-30T04:21:58.868Z,11.83
2023-03-30T04:24:27.935Z,10.67
2023-03-30T04:26:57.971Z,11.03
2023-03-30T04:29:25.542Z,12.60
2023-03-30T04:31:53.290Z,12.27
2023-03-30T04:34:21.921Z,13.00
2023-03-30T04:36:49.578Z,13.83
2023-03-30T04:39:20.788Z,10.57
2023-03-30T04:41:54.478Z,12.90
2023-03-30T04:44:22.100Z,11.23
2023-03-30T04:46:49.629Z,12.23
2023-03-30T04:49:17.170Z,14.63
2023-03-30T04:51:44.781Z,13.00
2023-03-30T04:54:12.331Z,12.20
2023-03-30T04:56:41.544Z,14.37
2023-03-30T04:59:09.185Z,13.23
2023-03-30T05:01:36.751Z,12.73
2023-03-30T05:04:04.317Z,13.37
2023-03-30T05:06:31.910Z,13.57
2023-03-30T05:08:59.459Z,12.90
2023-03-30T05:11:27.312Z,12.83
2023-03-30T05:13:56.290Z,13.03
2023-03-30T05:16:23.873Z,14.93
2023-03-30T05:18:51.900Z,12.90
2023-03-30T05:21:19.474Z,11.70
2023-03-30T05:23:47.013Z,12.00
2023-03-30T05:26:14.618Z,12.30
2023-03-30T05:28:43.058Z,13.63
2023-03-30T05:31:11.988Z,15.13
2023-03-30T05:33:41.371Z,13.57
2023-03-30T05:36:11.605Z,13.13
2023-03-30T05:38:39.289Z,14.93
2023-03-30T05:41:07.717Z,12.63
2023-03-30T05:43:35.366Z,13.90
2023-03-30T05:46:03.494Z,13.07
2023-03-30T05:48:32.425Z,12.97
2023-03-30T05:51:02.159Z,13.90
2023-03-30T05:53:30.039Z,16.30
2023-03-30T05:55:57.594Z,16.57
2023-03-30T05:58:25.310Z,17.70
2023-03-30T06:00:54.132Z,13.80
2023-03-30T06:03:21.816Z,15.50
2023-03-30T06:05:50.918Z,15.47
2023-03-30T06:08:20.097Z,12.57
2023-03-30T06:10:53.989Z,13.23
2023-03-30T06:13:21.642Z,18.17
2023-03-30T06:15:49.571Z,13.57
2023-03-30T06:18:17.488Z,14.80
2023-03-30T06:20:47.617Z,14.73
2023-03-30T06:23:16.830Z,15.97
2023-03-30T06:25:47.260Z,15.37
2023-03-30T06:28:14.779Z,14.03
2023-03-30T06:30:42.735Z,15.20
2023-03-30T06:33:10.278Z,12.50
2023-03-30T06:35:37.888Z,14.57
2023-03-30T06:38:05.460Z,16.87
2023-03-30T06:40:34.317Z,14.53
2023-03-30T06:43:01.934Z,15.90
2023-03-30T06:45:29.529Z,18.13
2023-03-30T06:47:57.216Z,12.53
2023-03-30T06:50:24.843Z,13.10
2023-03-30T06:52:53.053Z,15.97
2023-03-30T06:55:21.795Z,14.27
2023-03-30T06:57:50.797Z,18.37
2023-03-30T07:00:19.166Z,14.97
2023-03-30T07:02:46.728Z,15.63
2023-03-30T07:05:15.794Z,19.70
2023-03-30T07:07:43.400Z,20.20
2023-03-30T07:10:12.115Z,14.90
2023-03-30T07:12:40.812Z,17.57
2023-03-30T07:15:10.704Z,14.03
2023-03-30T07:17:38.744Z,15.60
2023-03-30T07:20:08.252Z,15.27
2023-03-30T07:22:36.274Z,15.03
2023-03-30T07:25:04.596Z,14.67
2023-03-30T07:27:32.200Z,11.73
2023-03-30T07:30:10.270Z,12.20
2023-03-30T07:32:43.170Z,12.60
2023-03-30T07:35:10.977Z,13.60
2023-03-30T07:37:40.008Z,13.63
2023-03-30T07:40:10.071Z,11.03
2023-03-30T07:42:37.982Z,16.70
2023-03-30T07:45:06.202Z,10.43
2023-03-30T07:47:33.885Z,13.77
2023-03-30T07:50:02.838Z,14.37
2023-03-30T07:52:30.422Z,15.80
2023-03-30T07:54:57.991Z,10.53
2023-03-30T07:57:26.181Z,13.67
2023-03-30T07:59:53.807Z,10.07
2023-03-30T08:02:21.345Z,12.70
2023-03-30T08:04:49.124Z,9.80
2023-03-30T08:07:18.131Z,10.97
2023-03-30T08:09:46.774Z,10.80
2023-03-30T08:12:14.517Z,14.30
2023-03-30T08:14:42.106Z,12.10
2023-03-30T08:17:09.633Z,12.67
2023-03-30T08:19:37.266Z,14.67
2023-03-30T08:22:04.861Z,13.87
2023-03-30T08:24:34.839Z,12.67
2023-03-30T08:27:02.610Z,14.33
2023-03-30T08:29:31.501Z,13.70
2023-03-30T08:31:59.086Z,14.23
2023-03-30T08:34:27.494Z,14.57
2023-03-30T08:36:55.426Z,12.70
2023-03-30T08:39:23.110Z,10.90
2023-03-30T08:42:01.090Z,11.27
2023-03-30T08:44:33.850Z,11.23
2023-03-30T08:47:02.554Z,12.93
2023-03-30T08:49:31.347Z,13.47
2023-03-30T08:52:02.505Z,12.43
2023-03-30T08:54:31.664Z,14.67
2023-03-30T08:57:08.841Z,13.33
2023-03-30T08:59:42.211Z,14.00
2023-03-30T09:02:16.417Z,11.97
2023-03-30T09:04:57.156Z,11.57
2023-03-30T09:07:26.494Z,13.63
2023-03-30T09:09:55.080Z,13.93
2023-03-30T09:12:31.601Z,10.43
2023-03-30T09:15:03.266Z,15.73
2023-03-30T09:17:33.473Z,11.07
2023-03-30T09:20:06.948Z,10.57
2023-03-30T09:22:39.909Z,10.73
2023-03-30T09:25:15.374Z,11.70
2023-03-30T09:27:48.288Z,14.87
2023-03-30T09:30:19.977Z,11.87
2023-03-30T09:32:54.293Z,11.27
2023-03-30T09:35:25.057Z,12.03
2023-03-30T09:37:52.697Z,10.93
2023-03-30T09:40:28.151Z,11.30
2023-03-30T09:43:01.684Z,10.00
2023-03-30T09:45:33.276Z,11.67
2023-03-30T09:48:05.432Z,11.57
2023-03-30T09:50:39.006Z,12.97
2023-03-30T09:53:10.029Z,12.73
2023-03-30T09:55:38.498Z,13.53
2023-03-30T09:58:14.469Z,13.43
2023-03-30T10:00:42.065Z,12.60
2023-03-30T10:03:20.884Z,13.07
2023-03-30T10:06:02.703Z,14.07
2023-03-30T10:08:30.771Z,16.43
2023-03-30T10:11:00.638Z,14.30
2023-03-30T10:13:33.313Z,13.53
2023-03-30T10:16:06.470Z,13.23
2023-03-30T10:18:40.023Z,14.10
2023-03-30T10:21:10.965Z,13.00
2023-03-30T10:23:42.027Z,13.10
2023-03-30T10:26:15.433Z,14.50
2023-03-30T10:28:52.919Z,15.43
2023-03-30T10:31:20.780Z,15.67
2023-03-30T10:33:49.828Z,14.37
2023-03-30T10:36:19.944Z,13.87
2023-03-30T10:38:47.950Z,14.53
2023-03-30T10:41:17.973Z,15.77
2023-03-30T10:43:47.308Z,15.87
2023-03-30T10:46:20.148Z,16.13
2023-03-30T10:49:05.405Z,14.57
2023-03-30T10:51:39.949Z,13.17
2023-03-30T10:54:12.129Z,13.87
2023-03-30T10:56:44.439Z,18.33
2023-03-30T10:59:20.706Z,16.67
2023-03-30T11:01:56.012Z,16.43
2023-03-30T11:04:29.447Z,16.60
2023-03-30T11:06:58.625Z,16.77
2023-03-30T11:09:32.788Z,16.37
2023-03-30T11:12:02.903Z,14.07
2023-03-30T11:14:38.296Z,14.40
2023-03-30T11:17:09.056Z,13.70
2023-03-30T11:19:39.513Z,14.13
2023-03-30T11:22:15.971Z,14.63
2023-03-30T11:24:45.964Z,15.50
2023-03-30T11:27:18.297Z,14.83
2023-03-30T11:29:49.703Z,17.13
2023-03-30T11:32:25.947Z,16.07
2023-03-30T11:35:02.487Z,16.10
2023-03-30T11:37:34.464Z,15.47
2023-03-30T11:40:10.112Z,16.60
2023-03-30T11:42:38.054Z,16.93
2023-03-30T11:45:23.793Z,15.43
2023-03-30T11:48:04.405Z,16.03
2023-03-30T11:50:39.790Z,16.43
2023-03-30T11:53:15.283Z,15.57
2023-03-30T11:55:50.015Z,17.27
2023-03-30T11:58:25.005Z,15.90
2023-03-30T12:01:03.687Z,17.30
2023-03-30T12:03:37.767Z,16.57
2023-03-30T12:06:16.522Z,19.03
2023-03-30T12:08:52.292Z,16.50
2023-03-30T12:11:24.577Z,17.93
2023-03-30T12:13:52.588Z,18.20
2023-03-30T12:16:28.168Z,16.80
2023-03-30T12:19:06.658Z,22.87
2023-03-30T12:21:38.015Z,17.23
2023-03-30T12:24:13.720Z,15.33
2023-03-30T12:26:42.516Z,14.63
2023-03-30T12:29:52.587Z,15.50
2023-03-30T12:32:08.420Z,15.77
2023-03-30T12:34:37.691Z,15.37
2023-03-30T12:37:13.057Z,14.80
2023-03-30T12:39:44.913Z,13.80
2023-03-30T12:42:26.265Z,13.73
2023-03-30T12:45:08.337Z,14.80
2023-03-30T12:47:52.602Z,15.33
2023-03-30T12:50:30.240Z,17.50
2023-03-30T12:53:12.175Z,16.90
2023-03-30T12:55:45.493Z,13.57
2023-03-30T12:58:28.442Z,13.23
2023-03-30T13:01:25.742Z,14.57
2023-03-30T13:03:55.463Z,15.57
2023-03-30T13:06:26.980Z,14.73
2023-03-30T13:08:56.074Z,18.53
2023-03-30T13:11:24.408Z,18.30
2023-03-30T13:13:55.037Z,18.40
2023-03-30T13:16:48.934Z,15.07
2023-03-30T13:19:26.707Z,13.00
2023-03-30T13:21:58.797Z,12.07
2023-03-30T13:24:33.565Z,10.87
2023-03-30T13:27:13.343Z,10.87
2023-03-30T13:29:41.336Z,10.50
2023-03-30T13:32:16.631Z,11.80
2023-03-30T13:35:06.728Z,12.63
2023-03-30T13:37:56.788Z,9.53
2023-03-30T13:40:39.508Z,10.80
2023-03-30T13:43:18.301Z,10.70
2023-03-30T13:45:50.816Z,10.23
2023-03-30T13:48:30.906Z,7.83
2023-03-30T13:51:01.839Z,8.00
2023-03-30T13:53:33.549Z,8.27
2023-03-30T13:56:01.104Z,6.93
2023-03-30T13:58:30.908Z,4.83
2023-03-30T14:01:01.674Z,5.33
2023-03-30T14:03:37.439Z,3.73
2023-03-30T14:06:09.561Z,6.27
2023-03-30T14:08:40.785Z,4.77
2023-03-30T14:11:17.043Z,7.73
2023-03-30T14:13:45.970Z,3.93
2023-03-30T14:16:20.064Z,6.20
2023-03-30T14:18:47.869Z,6.17
2023-03-30T14:21:18.772Z,4.37
2023-03-30T14:23:56.275Z,5.20
2023-03-30T14:26:25.149Z,6.50
2023-03-30T14:28:55.622Z,5.93
2023-03-30T14:31:23.451Z,6.13
2023-03-30T14:33:51.038Z,3.73
2023-03-30T14:36:21.437Z,5.20
2023-03-30T14:38:51.376Z,7.37
2023-03-30T14:41:22.805Z,6.67
2023-03-30T14:43:54.892Z,4.93
2023-03-30T14:46:23.897Z,5.43
2023-03-30T14:48:51.468Z,5.37
2023-03-30T14:51:25.993Z,3.93
2023-03-30T14:53:54.620Z,3.93
2023-03-30T14:56:23.382Z,5.67
2023-03-30T14:58:52.225Z,3.57
2023-03-30T15:01:24.059Z,4.90
2023-03-30T15:03:51.777Z,4.27
2023-03-30T15:06:24.515Z,5.70
2023-03-30T15:08:52.744Z,6.10
2023-03-30T15:11:23.221Z,5.60
2023-03-30T15:13:53.150Z,5.30
2023-03-30T15:16:24.225Z,6.37
2023-03-30T15:18:52.489Z,8.20
2023-03-30T15:21:20.614Z,4.40
2023-03-30T15:23:51.201Z,3.80
2023-03-30T15:26:19.654Z,4.80
2023-03-30T15:28:50.122Z,6.30
2023-03-30T15:31:19.671Z,5.20
2023-03-30T15:33:50.453Z,4.60
2023-03-30T15:36:20.617Z,6.03
2023-03-30T15:38:51.617Z,5.53
2023-03-30T15:41:27.676Z,4.40
2023-03-30T15:43:59.437Z,4.00
2023-03-30T15:46:28.821Z,4.13
2023-03-30T15:48:59.367Z,3.83
2023-03-30T15:51:29.818Z,4.17
2023-03-30T15:54:02.544Z,4.30
2023-03-30T15:56:32.964Z,4.33
2023-03-30T15:59:01.569Z,3.83
2023-03-30T16:01:42.563Z,4.63
2023-03-30T16:04:11.992Z,8.37
2023-03-30T16:06:42.482Z,4.33
2023-03-30T16:09:12.106Z,5.20
2023-03-30T16:11:40.032Z,5.00
2023-03-30T16:14:08.533Z,4.23
2023-03-30T16:16:36.217Z,5.80
2023-03-30T16:19:03.796Z,4.50
2023-03-30T16:21:31.492Z,6.10
2023-03-30T16:23:59.013Z,4.20
2023-03-30T16:26:27.914Z,4.70
2023-03-30T16:28:55.829Z,5.18
2023-03-30T16:31:24.240Z,6.03
2023-03-30T16:33:52.229Z,4.73
2023-03-30T16:36:22.094Z,4.93
2023-03-30T16:38:50.027Z,5.70
2023-03-30T16:41:20.529Z,4.70
2023-03-30T16:43:49.967Z,4.70
2023-03-30T16:46:19.111Z,6.07
2023-03-30T16:48:47.233Z,5.53
2023-03-30T16:51:16.036Z,4.77
2023-03-30T16:53:43.790Z,6.90
2023-03-30T16:56:15.164Z,4.87
2023-03-30T16:58:42.804Z,6.97
2023-03-30T17:01:13.201Z,6.40
2023-03-30T17:03:41.295Z,5.73
2023-03-30T17:06:09.208Z,8.03
2023-03-30T17:08:36.874Z,5.97
2023-03-30T17:11:05.056Z,6.07
2023-03-30T17:13:33.020Z,3.50
2023-03-30T17:16:02.794Z,3.30
2023-03-30T17:18:31.963Z,3.00
2023-03-30T17:21:00.860Z,3.33
2023-03-30T17:23:29.983Z,4.93
2023-03-30T17:25:59.006Z,2.20
2023-03-30T17:28:28.652Z,3.27
2023-03-30T17:30:57.887Z,2.00
2023-03-30T17:33:26.284Z,3.73
2023-03-30T17:35:57.849Z,5.70
2023-03-30T17:38:25.769Z,3.80
2023-03-30T17:40:53.364Z,4.10
2023-03-30T17:43:21.301Z,3.23
2023-03-30T17:45:49.043Z,2.90
2023-03-30T17:48:18.447Z,3.20
2023-03-30T17:50:47.798Z,3.23
2023-03-30T17:53:17.789Z,2.10
2023-03-30T17:55:46.214Z,3.80
2023-03-30T17:58:18.093Z,4.03
2023-03-30T18:00:47.126Z,2.03
2023-03-30T18:03:14.853Z,2.43
2023-03-30T18:05:43.079Z,2.70
2023-03-30T18:08:14.622Z,2.27
2023-03-30T18:10:44.902Z,4.63
2023-03-30T18:13:12.501Z,4.07
2023-03-30T18:15:40.046Z,2.30
2023-03-30T18:18:07.607Z,4.43
2023-03-30T18:20:37.138Z,2.20
2023-03-30T18:23:04.680Z,4.13
2023-03-30T18:25:33.070Z,2.03
2023-03-30T18:28:02.314Z,2.23
2023-03-30T18:30:31.504Z,4.30
2023-03-30T18:32:59.498Z,5.73
2023-03-30T18:35:28.710Z,4.60
2023-03-30T18:37:56.528Z,5.83
2023-03-30T18:40:26.583Z,5.00
2023-03-30T18:42:54.813Z,4.00
2023-03-30T18:45:26.828Z,3.43
2023-03-30T18:47:54.826Z,3.20
2023-03-30T18:50:24.567Z,3.20
2023-03-30T18:52:52.301Z,3.23
2023-03-30T18:55:19.905Z,4.03
2023-03-30T18:57:47.469Z,4.23
2023-03-30T19:00:26.242Z,3.80
2023-03-30T19:02:55.168Z,5.77
2023-03-30T19:05:24.056Z,3.30
2023-03-30T19:07:51.600Z,3.33
2023-03-30T19:10:20.868Z,2.30
2023-03-30T19:12:52.861Z,2.47
2023-03-30T19:15:25.298Z,2.90
2023-03-30T19:17:53.183Z,2.70
2023-03-30T19:20:22.683Z,3.87
2023-03-30T19:22:50.544Z,3.30
2023-03-30T19:25:19.995Z,3.33
2023-03-30T19:27:59.676Z,3.23
2023-03-30T19:30:33.016Z,3.97
2023-03-30T19:33:03.648Z,5.73
2023-03-30T19:35:31.785Z,4.50
2023-03-30T19:37:59.729Z,4.40
2023-03-30T19:40:27.662Z,4.43
2023-03-30T19:42:55.343Z,4.50
2023-03-30T19:45:23.754Z,4.17
2023-03-30T19:47:53.159Z,4.40
2023-03-30T19:50:24.824Z,3.20
2023-03-30T19:52:54.361Z,5.70
2023-03-30T19:55:22.548Z,4.03
2023-03-30T19:57:50.180Z,4.00
2023-03-30T20:00:18.857Z,4.80
2023-03-30T20:02:48.930Z,5.30
2023-03-30T20:05:18.485Z,3.03
2023-03-30T20:07:47.154Z,2.90
2023-03-30T20:10:16.689Z,3.97
2023-03-30T20:12:44.254Z,4.00
2023-03-30T20:15:12.469Z,4.43
2023-03-30T20:17:40.562Z,6.47
2023-03-30T20:20:12.595Z,3.53
2023-03-30T20:22:42.840Z,5.23
2023-03-30T20:25:12.300Z,9.37
2023-03-30T20:27:40.212Z,6.17
2023-03-30T20:30:09.174Z,3.10
2023-03-30T20:32:36.773Z,2.87
2023-03-30T20:35:05.191Z,3.27
2023-03-30T20:37:32.718Z,3.30
2023-03-30T20:40:09.529Z,2.97
2023-03-30T20:42:39.477Z,2.57
2023-03-30T20:45:08.842Z,4.97
2023-03-30T20:47:36.417Z,3.57
2023-03-30T20:50:04.704Z,3.20
2023-03-30T20:52:32.268Z,6.47
2023-03-30T20:55:01.399Z,3.10
2023-03-30T20:57:29.084Z,3.40
2023-03-30T20:59:56.649Z,3.50
2023-03-30T21:02:24.206Z,5.67
2023-03-30T21:04:52.971Z,4.30
2023-03-30T21:07:20.565Z,4.97
2023-03-30T21:09:48.065Z,3.83
2023-03-30T21:12:17.090Z,6.77
2023-03-30T21:14:45.863Z,5.83
2023-03-30T21:17:13.854Z,8.50
2023-03-30T21:19:41.430Z,6.13
2023-03-30T21:22:09.086Z,6.13
2023-03-30T21:24:36.599Z,3.63
2023-03-30T21:27:04.253Z,6.57
2023-03-30T21:29:33.318Z,6.13
2023-03-30T21:32:01.571Z,4.60
2023-03-30T21:34:29.118Z,5.20
2023-03-30T21:36:57.208Z,4.57
2023-03-30T21:39:25.123Z,4.40
2023-03-30T21:41:52.814Z,4.43
2023-03-30T21:44:20.887Z,3.67
2023-03-30T21:46:49.817Z,3.93
2023-03-30T21:49:17.438Z,3.73
2023-03-30T21:51:44.979Z,6.93
2023-03-30T21:54:13.950Z,5.20
2023-03-30T21:56:41.576Z,4.43
2023-03-30T21:59:09.721Z,5.77
2023-03-30T22:01:38.732Z,5.30
2023-03-30T22:04:07.792Z,4.10
2023-03-30T22:06:35.477Z,4.00
2023-03-30T22:09:03.055Z,5.67
2023-03-30T22:11:30.986Z,4.63
2023-03-30T22:13:58.490Z,3.53
2023-03-30T22:16:28.265Z,5.87
2023-03-30T22:18:56.039Z,9.37
2023-03-30T22:21:29.171Z,4.60
2023-03-30T22:23:56.768Z,4.33
2023-03-30T22:26:24.529Z,3.60
2023-03-30T22:28:52.136Z,3.90
2023-03-30T22:31:19.715Z,3.97
2023-03-30T22:33:47.931Z,3.93
2023-03-30T22:36:18.807Z,4.73
2023-03-30T22:38:48.124Z,4.47
2023-03-30T22:41:15.999Z,3.60
2023-03-30T22:43:43.552Z,5.17
2023-03-30T22:46:11.790Z,3.80
2023-03-30T22:48:41.384Z,5.77
2023-03-30T22:51:09.184Z,3.87
2023-03-30T22:53:38.519Z,3.30
2023-03-30T22:56:08.552Z,4.33
2023-03-30T22:58:36.341Z,3.63
2023-03-30T23:01:06.857Z,4.37
2023-03-30T23:03:34.573Z,3.70
2023-03-30T23:06:02.324Z,5.83
2023-03-30T23:08:30.473Z,4.10
2023-03-30T23:11:03.886Z,4.33
2023-03-30T23:13:33.346Z,5.23
2023-03-30T23:16:01.555Z,6.37
2023-03-30T23:18:29.138Z,6.67
2023-03-30T23:20:57.983Z,4.77
2023-03-30T23:23:25.709Z,5.90
2023-03-30T23:25:53.381Z,6.83
2023-03-30T23:28:20.936Z,6.30
2023-03-30T23:30:49.829Z,8.30
2023-03-30T23:33:17.422Z,7.53
2023-03-30T23:35:49.771Z,6.27
2023-03-30T23:38:17.501Z,6.83
2023-03-30T23:40:45.033Z,6.20
2023-03-30T23:43:12.577Z,5.67
2023-03-30T23:45:40.735Z,7.23
2023-03-30T23:48:09.860Z,6.17
2023-03-30T23:50:37.756Z,5.80
2023-03-30T23:53:07.092Z,8.10
2023-03-30T23:55:34.670Z,5.80
2023-03-30T23:58:02.302Z,7.37
